Time,TemperatureF,DewpointF,PressureIn,WindDirection,WindDirectionDegrees,WindSpeedMPH,WindSpeedGustMPH,Humidity,HourlyPrecipIn,Conditions,Clouds,dailyrainin,SoftwareType,DateUTC
2013-05-15 00:02:00,47.4,30.0,30.04,ESE,112,2.0,4.0,51,0.00,,,0.00,weatherlink.com 1.10,2013-05-15 04:02:00,
2013-05-15 00:17:00,48.0,29.0,30.03,ESE,122,0.0,4.0,49,0.00,,,0.00,weatherlink.com 1.10,2013-05-15 04:17:00,
2013-05-15 00:32:00,47.6,30.0,30.03,ESE,121,0.0,4.0,50,0.00,,,0.00,weatherlink.com 1.10,2013-05-15 04:32:00,
2013-05-15 00:47:00,48.2,29.0,30.03,SE,135,0.0,3.0,47,0.00,,,0.00,weatherlink.com 1.10,2013-05-15 04:47:00,
2013-05-15 01:02:00,48.5,28.0,30.03,South,177,0.0,4.0,46,0.00,,,0.00,weatherlink.com 1.10,2013-05-15 05:02:00,
2013-05-15 01:17:00,45.0,32.0,30.04,South,177,1.0,2.0,60,0.00,,,0.00,weatherlink.com 1.10,2013-05-15 05:17:00,
2013-05-15 01:32:00,42.7,31.0,30.03,South,177,0.0,1.0,63,0.00,,,0.00,weatherlink.com 1.10,2013-05-15 05:32:00,
2013-05-15 01:47:00,42.4,30.0,30.03,South,177,0.0,0.0,61,0.00,,,0.00,weatherlink.com 1.10,2013-05-15 05:47:00,
2013-05-15 02:02:00,43.2,30.0,30.02,South,177,1.0,1.0,59,0.00,,,0.00,weatherlink.com 1.10,2013-05-15 06:02:00,
2013-05-15 02:17:00,42.5,30.0,30.02,South,177,0.0,2.0,61,0.00,,,0.00,weatherlink.com 1.10,2013-05-15 06:17:00,
2013-05-15 02:32:00,43.9,30.0,30.02,South,177,2.0,2.0,58,0.00,,,0.00,weatherlink.com 1.10,2013-05-15 06:32:00,
2013-05-15 02:47:00,44.7,30.0,30.02,South,177,0.0,2.0,56,0.00,,,0.00,weatherlink.com 1.10,2013-05-15 06:47:00,
2013-05-15 03:02:00,44.3,29.0,30.01,South,177,0.0,1.0,56,0.00,,,0.00,weatherlink.com 1.10,2013-05-15 07:02:00,
2013-05-15 03:17:00,44.7,30.0,30.01,South,177,0.0,0.0,56,0.00,,,0.00,weatherlink.com 1.10,2013-05-15 07:17:00,
2013-05-15 03:32:00,43.6,29.0,30.01,South,177,0.0,1.0,57,0.00,,,0.00,weatherlink.com 1.10,2013-05-15 07:32:00,
2013-05-15 03:47:00,43.2,31.0,30.00,South,177,0.0,2.0,62,0.00,,,0.00,weatherlink.com 1.10,2013-05-15 07:47:00,
2013-05-15 04:02:00,42.3,30.0,30.01,South,177,0.0,0.0,62,0.00,,,0.00,weatherlink.com 1.10,2013-05-15 08:02:00,
2013-05-15 04:17:00,40.5,30.0,30.01,South,177,0.0,0.0,67,0.00,,,0.00,weatherlink.com 1.10,2013-05-15 08:17:00,
2013-05-15 04:32:00,41.1,30.0,30.01,South,177,0.0,1.0,65,0.00,,,0.00,weatherlink.com 1.10,2013-05-15 08:32:00,
2013-05-15 04:47:00,41.7,31.0,30.00,South,177,1.0,3.0,67,0.00,,,0.00,weatherlink.com 1.10,2013-05-15 08:47:00,
2013-05-15 05:02:00,42.3,32.0,29.99,South,177,0.0,0.0,66,0.00,,,0.00,weatherlink.com 1.10,2013-05-15 09:02:00,
2013-05-15 05:17:00,41.0,34.0,30.00,South,177,0.0,2.0,75,0.00,,,0.00,weatherlink.com 1.10,2013-05-15 09:17:00,
2013-05-15 05:32:00,41.1,32.0,30.00,South,177,0.0,3.0,70,0.00,,,0.00,weatherlink.com 1.10,2013-05-15 09:32:00,
2013-05-15 05:47:00,41.4,33.0,30.00,South,177,0.0,3.0,72,0.00,,,0.00,weatherlink.com 1.10,2013-05-15 09:47:00,
2013-05-15 06:02:00,42.9,33.0,30.01,South,177,1.0,3.0,69,0.00,,,0.00,weatherlink.com 1.10,2013-05-15 10:02:00,
2013-05-15 06:17:00,43.0,34.0,30.00,South,177,2.0,3.0,71,0.00,,,0.00,weatherlink.com 1.10,2013-05-15 10:17:00,
2013-05-15 06:32:00,44.6,34.0,30.00,South,178,1.0,4.0,67,0.00,,,0.00,weatherlink.com 1.10,2013-05-15 10:32:00,
2013-05-15 06:47:00,45.8,36.0,30.00,South,178,0.0,2.0,68,0.00,,,0.00,weatherlink.com 1.10,2013-05-15 10:47:00,
2013-05-15 07:02:00,46.6,36.0,30.00,South,178,0.0,4.0,66,0.00,,,0.00,weatherlink.com 1.10,2013-05-15 11:02:00,
2013-05-15 07:17:00,47.3,37.0,30.00,South,179,2.0,4.0,67,0.00,,,0.00,weatherlink.com 1.10,2013-05-15 11:17:00,
2013-05-15 07:32:00,48.6,37.0,29.99,South,186,5.0,8.0,64,0.00,,,0.00,weatherlink.com 1.10,2013-05-15 11:32:00,
2013-05-15 08:03:00,51.5,37.0,29.98,South,186,4.0,10.0,59,0.00,,,0.00,weatherlink.com 1.10,2013-05-15 12:03:00,
2013-05-15 08:33:00,51.7,38.0,29.98,South,178,5.0,8.0,60,0.00,,,0.00,weatherlink.com 1.10,2013-05-15 12:33:00,
2013-05-15 08:48:00,53.4,39.0,29.97,South,190,8.0,8.0,59,0.00,,,0.00,weatherlink.com 1.10,2013-05-15 12:48:00,
2013-05-15 09:03:00,54.4,39.0,29.97,WSW,254,5.0,12.0,56,0.00,,,0.00,weatherlink.com 1.10,2013-05-15 13:03:00,
2013-05-15 09:18:00,55.5,40.0,29.95,WSW,246,10.0,13.0,56,0.00,,,0.00,weatherlink.com 1.10,2013-05-15 13:18:00,
2013-05-15 09:33:00,55.6,40.0,29.94,SW,217,13.0,18.0,56,0.00,,,0.00,weatherlink.com 1.10,2013-05-15 13:33:00,
2013-05-15 10:03:00,56.5,41.0,29.94,SSW,199,8.0,14.0,56,0.00,,,0.00,weatherlink.com 1.10,2013-05-15 14:03:00,
2013-05-15 10:33:00,57.5,43.0,29.93,SSW,199,7.0,13.0,58,0.00,,,0.00,weatherlink.com 1.10,2013-05-15 14:33:00,
2013-05-15 10:48:00,56.2,42.0,29.94,SW,221,9.0,13.0,60,0.00,,,0.00,weatherlink.com 1.10,2013-05-15 14:48:00,
2013-05-15 11:03:00,56.1,43.0,29.94,SSW,208,4.0,12.0,61,0.00,,,0.00,weatherlink.com 1.10,2013-05-15 15:03:00,
2013-05-15 11:18:00,54.8,46.0,29.93,SW,215,5.0,8.0,71,0.00,,,0.00,weatherlink.com 1.10,2013-05-15 15:18:00,
2013-05-15 11:33:00,54.1,46.0,29.93,SSW,207,4.0,10.0,74,0.00,,,0.00,weatherlink.com 1.10,2013-05-15 15:33:00,
2013-05-15 11:48:00,54.2,46.0,29.94,SSW,208,3.0,6.0,74,0.00,,,0.00,weatherlink.com 1.10,2013-05-15 15:48:00,
2013-05-15 12:03:00,54.5,47.0,29.92,South,191,3.0,7.0,77,0.00,,,0.00,weatherlink.com 1.10,2013-05-15 16:03:00,
2013-05-15 12:18:00,53.6,48.0,29.92,SW,229,3.0,8.0,81,0.00,,,0.00,weatherlink.com 1.10,2013-05-15 16:18:00,
2013-05-15 12:33:00,52.3,48.0,29.88,South,171,4.0,8.0,86,0.01,,,0.01,weatherlink.com 1.10,2013-05-15 16:33:00,
2013-05-15 12:48:00,53.2,50.0,29.86,SW,217,6.0,10.0,88,0.01,,,0.01,weatherlink.com 1.10,2013-05-15 16:48:00,
2013-05-15 13:03:00,54.2,50.0,29.84,SSW,208,8.0,12.0,84,0.02,,,0.02,weatherlink.com 1.10,2013-05-15 17:03:00,
2013-05-15 13:18:00,56.3,51.0,29.84,SSW,211,12.0,16.0,81,0.02,,,0.02,weatherlink.com 1.10,2013-05-15 17:18:00,
2013-05-15 13:33:00,58.2,51.0,29.83,SSW,193,17.0,20.0,77,0.01,,,0.02,weatherlink.com 1.10,2013-05-15 17:33:00,
2013-05-15 13:48:00,58.2,49.0,29.80,SSW,196,14.0,24.0,72,0.01,,,0.02,weatherlink.com 1.10,2013-05-15 17:48:00,
2013-05-15 14:03:00,59.4,50.0,29.79,SSW,211,13.0,21.0,72,0.01,,,0.03,weatherlink.com 1.10,2013-05-15 18:03:00,
2013-05-15 14:18:00,60.6,50.0,29.80,SW,217,11.0,18.0,69,0.01,,,0.03,weatherlink.com 1.10,2013-05-15 18:18:00,
2013-05-15 14:34:00,59.6,50.0,29.80,SW,223,11.0,19.0,70,0.01,,,0.03,weatherlink.com 1.10,2013-05-15 18:34:00,
2013-05-15 14:49:00,60.7,51.0,29.78,SW,215,9.0,18.0,70,0.01,,,0.03,weatherlink.com 1.10,2013-05-15 18:49:00,
2013-05-15 15:04:00,63.6,52.0,29.76,SW,221,7.0,15.0,67,0.00,,,0.03,weatherlink.com 1.10,2013-05-15 19:04:00,
2013-05-15 15:19:00,63.9,52.0,29.74,SW,225,10.0,17.0,66,0.00,,,0.03,weatherlink.com 1.10,2013-05-15 19:19:00,
2013-05-15 15:34:00,64.5,52.0,29.72,SSW,207,9.0,16.0,64,0.00,,,0.03,weatherlink.com 1.10,2013-05-15 19:34:00,
2013-05-15 16:04:00,63.9,54.0,29.68,South,189,9.0,16.0,70,0.01,,,0.04,weatherlink.com 1.10,2013-05-15 20:04:00,
2013-05-15 16:19:00,64.5,53.0,29.68,SW,221,8.0,18.0,66,0.01,,,0.04,weatherlink.com 1.10,2013-05-15 20:19:00,
2013-05-15 16:34:00,64.5,53.0,29.67,SW,223,16.0,18.0,67,0.01,,,0.04,weatherlink.com 1.10,2013-05-15 20:34:00,
2013-05-15 17:19:00,65.4,54.0,29.68,SW,236,10.0,13.0,67,0.00,,,0.04,weatherlink.com 1.10,2013-05-15 21:19:00,
2013-05-15 17:34:00,65.7,54.0,29.68,SW,215,10.0,13.0,66,0.00,,,0.04,weatherlink.com 1.10,2013-05-15 21:34:00,
2013-05-15 17:49:00,66.5,54.0,29.66,WSW,257,7.0,13.0,64,0.00,,,0.04,weatherlink.com 1.10,2013-05-15 21:49:00,
2013-05-15 18:04:00,66.3,55.0,29.65,SSW,209,8.0,12.0,66,0.00,,,0.04,weatherlink.com 1.10,2013-05-15 22:04:00,
2013-05-15 18:19:00,65.7,54.0,29.64,SSW,197,6.0,10.0,67,0.00,,,0.04,weatherlink.com 1.10,2013-05-15 22:19:00,
2013-05-15 18:34:00,65.5,54.0,29.64,SW,227,13.0,13.0,67,0.00,,,0.04,weatherlink.com 1.10,2013-05-15 22:34:00,
2013-05-15 19:04:00,64.7,55.0,29.63,SSW,200,9.0,11.0,70,0.00,,,0.04,weatherlink.com 1.10,2013-05-15 23:04:00,
2013-05-15 19:19:00,64.1,55.0,29.62,SSW,200,6.0,10.0,71,0.00,,,0.04,weatherlink.com 1.10,2013-05-15 23:19:00,
2013-05-15 19:34:00,62.7,54.0,29.62,SSE,161,6.0,11.0,73,0.00,,,0.04,weatherlink.com 1.10,2013-05-15 23:34:00,
2013-05-15 19:49:00,61.8,54.0,29.63,SSW,196,6.0,10.0,75,0.00,,,0.04,weatherlink.com 1.10,2013-05-15 23:49:00,
2013-05-15 20:04:00,60.9,54.0,29.64,South,186,2.0,8.0,77,0.00,,,0.04,weatherlink.com 1.10,2013-05-16 00:04:00,
2013-05-15 20:34:00,59.0,53.0,29.64,South,189,5.0,7.0,81,0.00,,,0.04,weatherlink.com 1.10,2013-05-16 00:34:00,
2013-05-15 21:19:00,58.4,53.0,29.65,SSW,196,5.0,9.0,82,0.00,,,0.04,weatherlink.com 1.10,2013-05-16 01:19:00,
2013-05-15 21:34:00,58.3,53.0,29.66,SSW,198,7.0,9.0,83,0.00,,,0.04,weatherlink.com 1.10,2013-05-16 01:34:00,
2013-05-15 22:04:00,57.6,53.0,29.67,SSW,196,5.0,7.0,84,0.00,,,0.04,weatherlink.com 1.10,2013-05-16 02:04:00,
2013-05-15 22:19:00,57.4,53.0,29.67,SSW,196,4.0,8.0,85,0.00,,,0.04,weatherlink.com 1.10,2013-05-16 02:19:00,
2013-05-15 22:34:00,57.5,53.0,29.67,South,190,4.0,7.0,86,0.00,,,0.04,weatherlink.com 1.10,2013-05-16 02:34:00,
2013-05-15 23:04:00,56.7,53.0,29.67,South,176,4.0,7.0,88,0.00,,,0.04,weatherlink.com 1.10,2013-05-16 03:04:00,
2013-05-15 23:19:00,56.4,53.0,29.66,SSW,204,6.0,6.0,88,0.00,,,0.04,weatherlink.com 1.10,2013-05-16 03:19:00,
2013-05-15 23:49:00,57.4,54.0,29.67,SSW,204,5.0,7.0,88,0.00,,,0.04,weatherlink.com 1.10,2013-05-16 03:49:00,